createdAt,value
2017-10-16T00:00:44.158Z,1013.98
2017-10-16T00:01:44.123Z,1013.99
2017-10-16T00:02:44.090Z,1013.98
2017-10-16T00:03:44.057Z,1013.93
2017-10-16T00:04:44.022Z,1014.01
2017-10-16T00:05:43.990Z,1014.00
2017-10-16T00:06:43.953Z,1014.08
2017-10-16T00:07:43.921Z,1014.07
2017-10-16T00:08:43.888Z,1014.12
2017-10-16T00:09:43.853Z,1014.14
2017-10-16T00:10:43.820Z,1014.13
2017-10-16T00:11:43.917Z,1014.09
2017-10-16T00:12:43.751Z,1014.12
2017-10-16T00:13:43.719Z,1014.11
2017-10-16T00:14:43.696Z,1014.18
2017-10-16T00:15:43.651Z,1014.11
2017-10-16T00:16:43.616Z,1014.14
2017-10-16T00:17:43.584Z,1014.20
2017-10-16T00:18:43.551Z,1014.19
2017-10-16T00:19:43.515Z,1014.16
2017-10-16T00:20:43.483Z,1014.13
2017-10-16T00:21:43.449Z,1014.12
2017-10-16T00:22:43.413Z,1014.07
2017-10-16T00:23:43.383Z,1014.11
2017-10-16T00:24:43.348Z,1014.11
2017-10-16T00:25:43.314Z,1014.14
2017-10-16T00:26:43.279Z,1014.09
2017-10-16T00:27:43.246Z,1014.13
2017-10-16T00:28:43.214Z,1014.08
2017-10-16T00:29:43.180Z,1014.12
2017-10-16T00:30:43.146Z,1014.11
2017-10-16T00:31:43.111Z,1014.07
2017-10-16T00:32:43.079Z,1014.10
2017-10-16T00:33:43.046Z,1014.05
2017-10-16T00:34:43.010Z,1014.05
2017-10-16T00:35:42.977Z,1014.08
2017-10-16T00:36:42.944Z,1014.13
2017-10-16T00:37:42.910Z,1014.08
2017-10-16T00:38:42.875Z,1014.04
2017-10-16T00:39:42.840Z,1014.12
2017-10-16T00:40:42.807Z,1014.03
2017-10-16T00:41:42.775Z,1014.08
2017-10-16T00:42:42.739Z,1014.12
2017-10-16T00:43:42.705Z,1014.09
2017-10-16T00:44:42.671Z,1014.05
2017-10-16T00:45:42.638Z,1014.04
2017-10-16T00:46:42.604Z,1014.08
2017-10-16T00:47:42.570Z,1014.05
2017-10-16T00:48:42.536Z,1014.08
2017-10-16T00:49:42.504Z,1014.10
2017-10-16T00:50:42.469Z,1014.07
2017-10-16T00:51:42.434Z,1014.12
2017-10-16T00:52:42.411Z,1014.13
2017-10-16T00:53:42.435Z,1014.08
2017-10-16T00:54:42.333Z,1014.04
2017-10-16T00:55:42.299Z,1014.12
2017-10-16T00:56:42.267Z,1014.13
2017-10-16T00:57:42.234Z,1014.11
2017-10-16T00:58:42.200Z,1014.02
2017-10-16T00:59:42.165Z,1014.03
2017-10-16T01:00:42.131Z,1014.05
2017-10-16T01:01:42.099Z,1014.05
2017-10-16T01:02:42.064Z,1013.98
2017-10-16T01:03:42.030Z,1014.01
2017-10-16T01:04:41.997Z,1014.01
2017-10-16T01:05:41.964Z,1013.99
2017-10-16T01:06:41.936Z,1013.97
2017-10-16T01:07:41.894Z,1014.00
2017-10-16T01:08:41.868Z,1013.95
2017-10-16T01:09:41.827Z,1013.91
2017-10-16T01:10:41.792Z,1013.95
2017-10-16T01:11:41.768Z,1013.99
2017-10-16T01:12:41.725Z,1013.96
2017-10-16T01:13:41.697Z,1013.95
2017-10-16T01:14:41.659Z,1013.96
2017-10-16T01:15:41.623Z,1013.93
2017-10-16T01:16:41.590Z,1013.84
2017-10-16T01:17:41.556Z,1013.94
2017-10-16T01:18:41.521Z,1013.79
2017-10-16T01:19:41.487Z,1013.86
2017-10-16T01:20:41.455Z,1013.86
2017-10-16T01:21:41.421Z,1013.84
2017-10-16T01:22:41.384Z,1013.91
2017-10-16T01:23:41.352Z,1013.87
2017-10-16T01:24:41.318Z,1013.92
2017-10-16T01:25:41.324Z,1013.88
2017-10-16T01:26:41.249Z,1013.77
2017-10-16T01:27:41.216Z,1013.80
2017-10-16T01:28:41.182Z,1013.84
2017-10-16T01:29:41.149Z,1013.82
2017-10-16T01:30:41.114Z,1013.82
2017-10-16T01:31:41.080Z,1013.77
2017-10-16T01:32:41.050Z,1013.78
2017-10-16T01:33:41.014Z,1013.79
2017-10-16T01:34:40.978Z,1013.73
2017-10-16T01:35:40.941Z,1013.72
2017-10-16T01:36:40.909Z,1013.77
2017-10-16T01:37:40.878Z,1013.74
2017-10-16T01:38:40.841Z,1013.67
2017-10-16T01:39:40.802Z,1013.67
2017-10-16T01:40:40.773Z,1013.70
2017-10-16T01:41:40.741Z,1013.64
2017-10-16T01:42:40.766Z,1013.65
2017-10-16T01:43:40.672Z,1013.67
2017-10-16T01:44:40.638Z,1013.70
2017-10-16T01:45:40.604Z,1013.68
2017-10-16T01:46:40.570Z,1013.60
2017-10-16T01:47:40.537Z,1013.63
2017-10-16T01:48:40.502Z,1013.62
2017-10-16T01:49:40.477Z,1013.64
2017-10-16T01:50:40.434Z,1013.63
2017-10-16T01:51:40.401Z,1013.58
2017-10-16T01:52:40.368Z,1013.65
2017-10-16T01:53:40.334Z,1013.63
2017-10-16T01:54:40.299Z,1013.62
2017-10-16T01:55:40.268Z,1013.59
2017-10-16T01:56:40.245Z,1013.62
2017-10-16T01:57:40.200Z,1013.63
2017-10-16T01:58:40.166Z,1013.58
2017-10-16T01:59:40.131Z,1013.57
2017-10-16T02:00:40.102Z,1013.52
2017-10-16T02:01:40.064Z,1013.54
2017-10-16T02:02:40.030Z,1013.54
2017-10-16T02:03:39.996Z,1013.60
2017-10-16T02:04:39.963Z,1013.57
2017-10-16T02:05:39.931Z,1013.53
2017-10-16T02:06:40.352Z,1013.53
2017-10-16T02:07:39.863Z,1013.54
2017-10-16T02:08:39.830Z,1013.57
2017-10-16T02:09:39.801Z,1013.58
2017-10-16T02:10:39.761Z,1013.59
2017-10-16T02:11:39.729Z,1013.54
2017-10-16T02:12:39.695Z,1013.55
2017-10-16T02:13:39.661Z,1013.56
2017-10-16T02:14:39.626Z,1013.59
2017-10-16T02:15:39.594Z,1013.58
2017-10-16T02:16:39.561Z,1013.59
2017-10-16T02:17:39.528Z,1013.57
2017-10-16T02:18:39.493Z,1013.55
2017-10-16T02:19:39.460Z,1013.55
2017-10-16T02:20:39.434Z,1013.52
2017-10-16T02:21:39.392Z,1013.55
2017-10-16T02:22:39.357Z,1013.50
2017-10-16T02:23:39.330Z,1013.56
2017-10-16T02:24:39.292Z,1013.47
2017-10-16T02:25:39.258Z,1013.57
2017-10-16T02:26:39.224Z,1013.54
2017-10-16T02:27:39.195Z,1013.53
2017-10-16T02:28:39.157Z,1013.53
2017-10-16T02:29:39.122Z,1013.51
2017-10-16T02:30:39.089Z,1013.54
2017-10-16T02:31:39.056Z,1013.57
2017-10-16T02:32:39.021Z,1013.57
2017-10-16T02:33:38.987Z,1013.53
2017-10-16T02:34:38.953Z,1013.57
2017-10-16T02:35:38.920Z,1013.53
2017-10-16T02:36:38.887Z,1013.55
2017-10-16T02:37:38.853Z,1013.57
2017-10-16T02:38:38.819Z,1013.64
2017-10-16T02:39:38.786Z,1013.61
2017-10-16T02:40:38.752Z,1013.62
2017-10-16T02:41:38.718Z,1013.65
2017-10-16T02:42:38.684Z,1013.53
2017-10-16T02:43:38.651Z,1013.62
2017-10-16T02:44:38.618Z,1013.66
2017-10-16T02:45:38.593Z,1013.59
2017-10-16T02:46:38.549Z,1013.65
2017-10-16T02:47:38.516Z,1013.63
2017-10-16T02:48:38.484Z,1013.64
2017-10-16T02:49:38.450Z,1013.67
2017-10-16T02:50:38.418Z,1013.69
2017-10-16T02:51:38.381Z,1013.69
2017-10-16T02:52:38.348Z,1013.67
2017-10-16T02:53:38.315Z,1013.68
2017-10-16T02:54:38.285Z,1013.67
2017-10-16T02:55:38.247Z,1013.64
2017-10-16T02:56:38.214Z,1013.58
2017-10-16T02:57:38.181Z,1013.66
2017-10-16T02:58:38.146Z,1013.62
2017-10-16T02:59:38.112Z,1013.53
2017-10-16T03:00:38.079Z,1013.62
2017-10-16T03:01:38.047Z,1013.62
2017-10-16T03:02:38.012Z,1013.65
2017-10-16T03:03:37.978Z,1013.69
2017-10-16T03:04:37.944Z,1013.68
2017-10-16T03:05:37.911Z,1013.67
2017-10-16T03:06:37.878Z,1013.55
2017-10-16T03:07:37.845Z,1013.67
2017-10-16T03:08:37.811Z,1013.65
2017-10-16T03:09:37.779Z,1013.66
2017-10-16T03:10:37.743Z,1013.68
2017-10-16T03:11:37.709Z,1013.61
2017-10-16T03:12:37.677Z,1013.64
2017-10-16T03:13:37.642Z,1013.58
2017-10-16T03:14:37.609Z,1013.67
2017-10-16T03:15:37.575Z,1013.68
2017-10-16T03:16:37.542Z,1013.61
2017-10-16T03:17:37.509Z,1013.60
2017-10-16T03:18:37.473Z,1013.62
2017-10-16T03:19:37.456Z,1013.64
2017-10-16T03:20:37.406Z,1013.60
2017-10-16T03:21:37.374Z,1013.63
2017-10-16T03:22:37.340Z,1013.67
2017-10-16T03:23:37.305Z,1013.65
2017-10-16T03:24:37.273Z,1013.67
2017-10-16T03:25:37.240Z,1013.62
2017-10-16T03:26:37.210Z,1013.65
2017-10-16T03:27:37.172Z,1013.63
2017-10-16T03:28:37.140Z,1013.69
2017-10-16T03:29:37.105Z,1013.62
2017-10-16T03:30:37.071Z,1013.57
2017-10-16T03:31:37.038Z,1013.66
2017-10-16T03:32:37.004Z,1013.58
2017-10-16T03:33:36.970Z,1013.61
2017-10-16T03:34:36.936Z,1013.57
2017-10-16T03:35:36.903Z,1013.65
2017-10-16T03:36:36.868Z,1013.65
2017-10-16T03:37:36.835Z,1013.62
2017-10-16T03:38:36.801Z,1013.62
2017-10-16T03:39:36.767Z,1013.56
2017-10-16T03:40:36.736Z,1013.58
2017-10-16T03:41:36.702Z,1013.48
2017-10-16T03:42:36.667Z,1013.58
2017-10-16T03:43:36.633Z,1013.52
2017-10-16T03:44:36.601Z,1013.51
2017-10-16T03:45:36.567Z,1013.52
2017-10-16T03:46:36.530Z,1013.52
2017-10-16T03:47:36.499Z,1013.54
2017-10-16T03:48:36.464Z,1013.49
2017-10-16T03:49:36.431Z,1013.57
2017-10-16T03:50:36.398Z,1013.58
2017-10-16T03:51:36.368Z,1013.55
2017-10-16T03:52:36.329Z,1013.52
2017-10-16T03:53:36.296Z,1013.47
2017-10-16T03:54:36.255Z,1013.54
2017-10-16T03:55:36.229Z,1013.51
2017-10-16T03:56:36.213Z,1013.54
2017-10-16T03:57:36.162Z,1013.54
2017-10-16T03:58:36.126Z,1013.55
2017-10-16T03:59:36.093Z,1013.54
2017-10-16T04:00:36.061Z,1013.51
2017-10-16T04:01:36.031Z,1013.48
2017-10-16T04:02:35.991Z,1013.54
2017-10-16T04:03:35.957Z,1013.54
2017-10-16T04:04:35.922Z,1013.51
2017-10-16T04:05:35.889Z,1013.47
2017-10-16T04:06:35.863Z,1013.50
2017-10-16T04:07:35.821Z,1013.49
2017-10-16T04:08:35.788Z,1013.42
2017-10-16T04:09:35.754Z,1013.46
2017-10-16T04:10:35.718Z,1013.49
2017-10-16T04:11:35.686Z,1013.44
2017-10-16T04:12:35.652Z,1013.44
2017-10-16T04:13:35.619Z,1013.40
2017-10-16T04:14:35.580Z,1013.38
2017-10-16T04:15:35.550Z,1013.44
2017-10-16T04:16:35.517Z,1013.46
2017-10-16T04:17:35.482Z,1013.46
2017-10-16T04:18:35.449Z,1013.52
2017-10-16T04:19:35.414Z,1013.42
2017-10-16T04:20:35.380Z,1013.44
2017-10-16T04:21:35.347Z,1013.43
2017-10-16T04:22:35.312Z,1013.41
2017-10-16T04:23:35.279Z,1013.41
2017-10-16T04:24:35.246Z,1013.41
2017-10-16T04:25:35.210Z,1013.47
2017-10-16T04:26:35.175Z,1013.46
2017-10-16T04:27:35.141Z,1013.44
2017-10-16T04:28:35.109Z,1013.44
2017-10-16T04:29:35.073Z,1013.50
2017-10-16T04:30:35.040Z,1013.55
2017-10-16T04:31:35.007Z,1013.45
2017-10-16T04:32:34.973Z,1013.66
2017-10-16T04:33:34.938Z,1013.60
2017-10-16T04:34:34.903Z,1013.59
2017-10-16T04:35:34.870Z,1013.53
2017-10-16T04:36:34.838Z,1013.52
2017-10-16T04:37:34.809Z,1013.56
2017-10-16T04:38:34.768Z,1013.52
2017-10-16T04:39:34.744Z,1013.48
2017-10-16T04:40:34.701Z,1013.56
2017-10-16T04:41:34.666Z,1013.61
2017-10-16T04:42:34.648Z,1013.56
2017-10-16T04:43:34.598Z,1013.63
2017-10-16T04:44:34.564Z,1013.56
2017-10-16T04:45:34.530Z,1013.59
2017-10-16T04:46:34.495Z,1013.62
2017-10-16T04:47:34.461Z,1013.65
2017-10-16T04:48:34.429Z,1013.59
2017-10-16T04:49:34.394Z,1013.67
2017-10-16T04:50:34.358Z,1013.67
2017-10-16T04:51:34.327Z,1013.70
2017-10-16T04:52:34.293Z,1013.60
2017-10-16T04:53:34.259Z,1013.63
2017-10-16T04:54:34.225Z,1013.60
2017-10-16T04:55:34.190Z,1013.54
2017-10-16T04:56:34.155Z,1013.61
2017-10-16T04:57:34.123Z,1013.63
2017-10-16T04:58:34.088Z,1013.62
2017-10-16T04:59:34.054Z,1013.63
2017-10-16T05:00:34.020Z,1013.64
2017-10-16T05:01:33.992Z,1013.65
2017-10-16T05:02:33.946Z,1013.74
2017-10-16T05:03:33.918Z,1013.64
2017-10-16T05:04:33.885Z,1013.69
2017-10-16T05:05:33.850Z,1013.65
2017-10-16T05:06:33.816Z,1013.62
2017-10-16T05:07:33.782Z,1013.59
2017-10-16T05:08:33.748Z,1013.54
2017-10-16T05:09:33.736Z,1013.45
2017-10-16T05:10:33.680Z,1013.56
2017-10-16T05:11:33.647Z,1013.54
2017-10-16T05:12:33.613Z,1013.56
2017-10-16T05:13:33.694Z,1013.61
2017-10-16T05:14:33.545Z,1013.62
2017-10-16T05:15:33.512Z,1013.58
2017-10-16T05:16:33.472Z,1013.66
2017-10-16T05:17:33.444Z,1013.66
2017-10-16T05:18:33.687Z,1013.75
2017-10-16T05:19:33.689Z,1013.80
2017-10-16T05:20:33.345Z,1013.67
2017-10-16T05:21:33.308Z,1013.70
2017-10-16T05:22:33.275Z,1013.72
2017-10-16T05:23:33.241Z,1013.67
2017-10-16T05:24:33.208Z,1013.63
2017-10-16T05:25:33.176Z,1013.61
2017-10-16T05:26:33.135Z,1013.69
2017-10-16T05:27:33.106Z,1013.74
2017-10-16T05:28:33.073Z,1013.67
2017-10-16T05:29:33.042Z,1013.62
2017-10-16T05:30:33.005Z,1013.72
2017-10-16T05:31:32.971Z,1013.64
2017-10-16T05:32:32.937Z,1013.59
2017-10-16T05:33:32.903Z,1013.62
2017-10-16T05:34:32.870Z,1013.64
2017-10-16T05:35:32.838Z,1013.60
2017-10-16T05:36:32.803Z,1013.67
2017-10-16T05:37:32.769Z,1013.66
2017-10-16T05:38:32.734Z,1013.61
2017-10-16T05:39:32.702Z,1013.53
2017-10-16T05:40:32.669Z,1013.57
2017-10-16T05:41:32.635Z,1013.42
2017-10-16T05:42:32.627Z,1013.34
2017-10-16T05:43:32.568Z,1013.32
2017-10-16T05:44:32.533Z,1013.39
2017-10-16T05:45:32.501Z,1013.34
2017-10-16T05:46:32.472Z,1013.32
2017-10-16T05:47:32.457Z,1013.31
2017-10-16T05:48:32.399Z,1013.35
2017-10-16T05:49:32.366Z,1013.29
2017-10-16T05:50:32.330Z,1013.33
2017-10-16T05:51:32.297Z,1013.40
2017-10-16T05:52:32.506Z,1013.35
2017-10-16T05:53:32.232Z,1013.32
2017-10-16T05:54:32.196Z,1013.44
2017-10-16T05:55:32.163Z,1013.43
2017-10-16T05:56:32.129Z,1013.44
2017-10-16T05:57:32.096Z,1013.50
2017-10-16T05:58:32.056Z,1013.47
2017-10-16T05:59:32.029Z,1013.58
2017-10-16T06:00:31.996Z,1013.57
2017-10-16T06:01:31.963Z,1013.62
2017-10-16T06:02:31.929Z,1013.59
2017-10-16T06:03:31.895Z,1013.50
2017-10-16T06:04:31.862Z,1013.56
2017-10-16T06:05:31.832Z,1013.52
2017-10-16T06:06:31.794Z,1013.67
2017-10-16T06:07:31.762Z,1013.58
2017-10-16T06:08:31.745Z,1013.62
2017-10-16T06:09:31.697Z,1013.62
2017-10-16T06:10:31.662Z,1013.69
2017-10-16T06:11:31.628Z,1013.68
2017-10-16T06:12:31.595Z,1013.77
2017-10-16T06:13:31.557Z,1013.81
2017-10-16T06:14:31.533Z,1013.67
2017-10-16T06:15:31.494Z,1013.82
2017-10-16T06:16:31.461Z,1013.82
2017-10-16T06:17:31.429Z,1013.76
2017-10-16T06:18:31.395Z,1013.80
2017-10-16T06:19:31.362Z,1013.75
2017-10-16T06:20:31.329Z,1013.74
2017-10-16T06:21:31.298Z,1013.69
2017-10-16T06:22:31.264Z,1013.75
2017-10-16T06:23:31.236Z,1013.74
2017-10-16T06:24:31.196Z,1013.70
2017-10-16T06:25:31.165Z,1013.66
2017-10-16T06:26:31.130Z,1013.62
2017-10-16T06:27:31.104Z,1013.65
2017-10-16T06:28:31.063Z,1013.55
2017-10-16T06:29:31.031Z,1013.64
2017-10-16T06:30:30.996Z,1013.58
2017-10-16T06:31:30.963Z,1013.63
2017-10-16T06:32:31.109Z,1013.65
2017-10-16T06:33:30.897Z,1013.64
2017-10-16T06:34:30.865Z,1013.61
2017-10-16T06:35:30.830Z,1013.56
2017-10-16T06:36:30.801Z,1013.64
2017-10-16T06:37:30.765Z,1013.60
2017-10-16T06:38:30.731Z,1013.63
2017-10-16T06:39:30.699Z,1013.52
2017-10-16T06:40:30.666Z,1013.65
2017-10-16T06:41:30.635Z,1013.52
2017-10-16T06:42:30.597Z,1013.59
2017-10-16T06:43:30.565Z,1013.58
2017-10-16T06:44:30.531Z,1013.61
2017-10-16T06:45:30.499Z,1013.64
2017-10-16T06:46:30.466Z,1013.64
2017-10-16T06:47:30.433Z,1013.59
2017-10-16T06:48:30.400Z,1013.55
2017-10-16T06:49:30.366Z,1013.58
2017-10-16T06:50:30.544Z,1013.58
2017-10-16T06:51:30.301Z,1013.60
2017-10-16T06:52:30.271Z,1013.57
2017-10-16T06:53:30.236Z,1013.47
2017-10-16T06:54:30.201Z,1013.59
2017-10-16T06:55:31.425Z,1013.59
2017-10-16T06:56:30.137Z,1013.57
2017-10-16T06:57:30.105Z,1013.64
2017-10-16T06:58:30.070Z,1013.62
2017-10-16T06:59:30.038Z,1013.66
2017-10-16T07:00:30.008Z,1013.63
2017-10-16T07:01:29.974Z,1013.64
2017-10-16T07:02:29.940Z,1013.69
2017-10-16T07:03:29.909Z,1013.69
2017-10-16T07:04:29.877Z,1013.72
2017-10-16T07:05:29.846Z,1013.71
2017-10-16T07:06:29.813Z,1013.68
2017-10-16T07:07:29.782Z,1013.61
2017-10-16T07:08:29.751Z,1013.68
2017-10-16T07:09:29.721Z,1013.62
2017-10-16T07:10:29.689Z,1013.73
2017-10-16T07:11:29.657Z,1013.75
2017-10-16T07:12:29.621Z,1013.79
2017-10-16T07:13:29.602Z,1013.71
2017-10-16T07:14:29.565Z,1013.81
2017-10-16T07:15:29.536Z,1013.86
2017-10-16T07:16:29.505Z,1013.84
2017-10-16T07:17:29.476Z,1013.75
2017-10-16T07:18:29.444Z,1013.83
2017-10-16T07:19:29.415Z,1013.81
2017-10-16T07:20:29.387Z,1013.79
2017-10-16T07:21:29.358Z,1013.81
2017-10-16T07:22:29.327Z,1013.90
2017-10-16T07:23:29.299Z,1013.86
2017-10-16T07:24:29.270Z,1013.90
2017-10-16T07:25:29.241Z,1013.88
2017-10-16T07:26:29.220Z,1013.90
2017-10-16T07:27:29.181Z,1013.93
2017-10-16T07:28:29.157Z,1013.90
2017-10-16T07:29:29.127Z,1014.01
2017-10-16T07:30:29.099Z,1014.02
2017-10-16T07:31:29.072Z,1014.02
2017-10-16T07:32:29.045Z,1014.10
2017-10-16T07:33:29.019Z,1013.91
2017-10-16T07:34:28.989Z,1014.01
2017-10-16T07:35:28.960Z,1013.99
2017-10-16T07:36:28.934Z,1013.99
2017-10-16T07:37:28.910Z,1014.03
2017-10-16T07:38:28.879Z,1014.00
2017-10-16T07:39:28.854Z,1014.02
2017-10-16T07:40:28.827Z,1014.05
2017-10-16T07:41:28.802Z,1013.99
2017-10-16T07:42:28.773Z,1014.04
2017-10-16T07:43:28.746Z,1014.06
2017-10-16T07:44:29.273Z,1014.04
2017-10-16T07:45:28.698Z,1014.00
2017-10-16T07:46:28.668Z,1014.07
2017-10-16T07:47:28.641Z,1014.07
2017-10-16T07:48:28.617Z,1014.11
2017-10-16T07:49:28.591Z,1014.12
2017-10-16T07:50:28.565Z,1014.07
2017-10-16T07:51:28.537Z,1014.05
2017-10-16T07:52:28.513Z,1014.05
2017-10-16T07:53:28.492Z,1014.06
2017-10-16T07:54:28.461Z,1014.09
2017-10-16T07:55:28.436Z,1014.09
2017-10-16T07:56:28.406Z,1014.08
2017-10-16T07:57:28.386Z,1014.13
2017-10-16T07:58:28.362Z,1014.13
2017-10-16T07:59:28.342Z,1014.13
2017-10-16T08:00:28.313Z,1014.14
2017-10-16T08:01:28.290Z,1014.15
2017-10-16T08:02:28.263Z,1014.12
2017-10-16T08:03:28.238Z,1014.13
2017-10-16T08:04:28.214Z,1014.17
2017-10-16T08:05:28.191Z,1014.11
2017-10-16T08:06:28.167Z,1014.08
2017-10-16T08:07:28.140Z,1014.05
2017-10-16T08:08:28.115Z,1014.04
2017-10-16T08:09:28.092Z,1014.02
2017-10-16T08:10:28.066Z,1014.01
2017-10-16T08:11:28.041Z,1014.02
2017-10-16T08:12:28.017Z,1014.11
2017-10-16T08:13:27.992Z,1014.20
2017-10-16T08:14:27.965Z,1014.20
2017-10-16T08:15:27.942Z,1014.22
2017-10-16T08:16:27.916Z,1014.24
2017-10-16T08:17:27.890Z,1014.30
2017-10-16T08:18:27.865Z,1014.26
2017-10-16T08:19:27.841Z,1014.27
2017-10-16T08:20:27.814Z,1014.34
2017-10-16T08:21:27.791Z,1014.36
2017-10-16T08:22:27.765Z,1014.30
2017-10-16T08:23:27.744Z,1014.39
2017-10-16T08:24:27.718Z,1014.37
2017-10-16T08:25:27.694Z,1014.35
2017-10-16T08:26:27.669Z,1014.40
2017-10-16T08:27:27.649Z,1014.45
2017-10-16T08:28:27.626Z,1014.53
2017-10-16T08:29:27.601Z,1014.52
2017-10-16T08:30:27.580Z,1014.53
2017-10-16T08:31:27.556Z,1014.49
2017-10-16T08:32:27.534Z,1014.55
2017-10-16T08:33:27.515Z,1014.60
2017-10-16T08:34:27.489Z,1014.61
2017-10-16T08:35:27.475Z,1014.49
2017-10-16T08:36:27.445Z,1014.52
2017-10-16T08:37:27.423Z,1014.57
2017-10-16T08:38:27.401Z,1014.57
2017-10-16T08:39:27.379Z,1014.60
2017-10-16T08:40:27.358Z,1014.58
2017-10-16T08:41:27.337Z,1014.61
2017-10-16T08:42:27.314Z,1014.58
2017-10-16T08:43:27.294Z,1014.55
2017-10-16T08:44:27.273Z,1014.56
2017-10-16T08:45:27.252Z,1014.66
2017-10-16T08:46:27.225Z,1014.67
2017-10-16T08:47:27.209Z,1014.68
2017-10-16T08:48:27.187Z,1014.67
2017-10-16T08:49:27.167Z,1014.71
2017-10-16T08:50:27.145Z,1014.63
2017-10-16T08:51:27.125Z,1014.69
2017-10-16T08:52:27.105Z,1014.63
2017-10-16T08:53:27.084Z,1014.68
2017-10-16T08:54:27.063Z,1014.65
2017-10-16T08:55:27.040Z,1014.65
2017-10-16T08:56:27.022Z,1014.59
2017-10-16T08:57:27.002Z,1014.65
2017-10-16T08:58:26.980Z,1014.68
2017-10-16T08:59:26.959Z,1014.70
2017-10-16T09:00:26.938Z,1014.63
2017-10-16T09:01:26.919Z,1014.60
2017-10-16T09:02:26.897Z,1014.58
2017-10-16T09:03:26.877Z,1014.62
2017-10-16T09:04:26.857Z,1014.64
2017-10-16T09:05:26.838Z,1014.64
2017-10-16T09:06:26.814Z,1014.64
2017-10-16T09:07:26.795Z,1014.67
2017-10-16T09:08:26.775Z,1014.67
2017-10-16T09:09:26.754Z,1014.63
2017-10-16T09:10:26.734Z,1014.62
2017-10-16T09:11:26.725Z,1014.67
2017-10-16T09:12:26.692Z,1014.63
2017-10-16T09:13:26.675Z,1014.70
2017-10-16T09:14:26.650Z,1014.62
2017-10-16T09:15:26.630Z,1014.59
2017-10-16T09:16:26.610Z,1014.59
2017-10-16T09:17:26.590Z,1014.65
2017-10-16T09:18:26.569Z,1014.70
2017-10-16T09:19:26.548Z,1014.63
2017-10-16T09:20:26.533Z,1014.77
2017-10-16T09:21:26.508Z,1015.05
2017-10-16T09:22:26.488Z,1015.20
2017-10-16T09:23:26.467Z,1015.29
2017-10-16T09:24:26.453Z,1015.38
2017-10-16T09:25:26.428Z,1015.46
2017-10-16T09:26:26.405Z,1015.60
2017-10-16T09:27:26.388Z,1015.66
2017-10-16T09:28:26.366Z,1015.62
2017-10-16T09:29:26.349Z,1015.66
2017-10-16T09:30:26.329Z,1015.65
2017-10-16T09:31:26.305Z,1015.68
2017-10-16T09:32:26.284Z,1015.64
2017-10-16T09:33:26.266Z,1015.64
2017-10-16T09:34:26.250Z,1015.63
2017-10-16T09:35:26.221Z,1015.49
2017-10-16T09:36:26.203Z,1015.32
2017-10-16T09:37:26.185Z,1015.34
2017-10-16T09:38:26.163Z,1015.29
2017-10-16T09:39:26.142Z,1015.30
2017-10-16T09:40:26.122Z,1015.33
2017-10-16T09:41:26.104Z,1015.22
2017-10-16T09:42:26.084Z,1015.16
2017-10-16T09:43:26.063Z,1015.27
2017-10-16T09:44:26.050Z,1015.21
2017-10-16T09:45:26.023Z,1015.24
2017-10-16T09:46:26.008Z,1015.29
2017-10-16T09:47:25.984Z,1015.38
2017-10-16T09:48:25.964Z,1015.46
2017-10-16T09:49:25.945Z,1015.56
2017-10-16T09:50:25.924Z,1015.66
2017-10-16T09:51:25.905Z,1015.78
2017-10-16T09:52:25.885Z,1015.84
2017-10-16T09:53:26.115Z,1015.91
2017-10-16T09:54:25.846Z,1015.81
2017-10-16T09:55:25.828Z,1015.73
2017-10-16T09:56:25.807Z,1015.86
2017-10-16T09:57:25.792Z,1015.81
2017-10-16T09:58:25.767Z,1015.83
2017-10-16T09:59:25.748Z,1015.68
2017-10-16T10:00:25.730Z,1015.67
2017-10-16T10:01:25.710Z,1015.68
2017-10-16T10:02:25.690Z,1015.67
2017-10-16T10:03:25.670Z,1015.71
2017-10-16T10:04:25.653Z,1015.68
2017-10-16T10:05:25.637Z,1015.77
2017-10-16T10:06:25.615Z,1015.68
2017-10-16T10:07:25.595Z,1015.65
2017-10-16T10:08:25.577Z,1015.77
2017-10-16T10:09:25.557Z,1015.89
2017-10-16T10:10:25.538Z,1015.95
2017-10-16T10:11:26.035Z,1015.89
2017-10-16T10:12:25.502Z,1015.80
2017-10-16T10:13:25.481Z,1015.69
2017-10-16T10:14:25.463Z,1015.65
2017-10-16T10:15:25.464Z,1015.58
2017-10-16T10:16:25.426Z,1015.48
2017-10-16T10:17:25.410Z,1015.46
2017-10-16T10:18:25.391Z,1015.42
2017-10-16T10:19:25.372Z,1015.39
2017-10-16T10:20:25.355Z,1015.27
2017-10-16T10:21:25.336Z,1015.25
2017-10-16T10:22:25.317Z,1015.27
2017-10-16T10:23:25.299Z,1015.18
2017-10-16T10:24:25.284Z,1015.11
2017-10-16T10:25:25.264Z,1015.13
2017-10-16T10:26:25.246Z,1015.13
2017-10-16T10:27:25.232Z,1015.25
2017-10-16T10:28:25.213Z,1015.21
2017-10-16T10:29:25.194Z,1015.30
2017-10-16T10:30:25.175Z,1015.28
2017-10-16T10:31:25.157Z,1015.27
2017-10-16T10:32:25.141Z,1015.22
2017-10-16T10:33:25.123Z,1015.24
2017-10-16T10:34:25.105Z,1015.34
2017-10-16T10:35:25.089Z,1015.34
2017-10-16T10:36:25.071Z,1015.28
2017-10-16T10:37:25.054Z,1015.21
2017-10-16T10:38:25.036Z,1015.25
2017-10-16T10:39:25.023Z,1015.18
2017-10-16T10:40:25.116Z,1015.09
2017-10-16T10:41:24.984Z,1014.89
2017-10-16T10:42:25.046Z,1014.87
2017-10-16T10:43:24.945Z,1014.84
2017-10-16T10:44:24.931Z,1014.84
2017-10-16T10:45:24.913Z,1014.80
2017-10-16T10:46:25.360Z,1014.83
2017-10-16T10:47:24.882Z,1014.87
2017-10-16T10:48:24.861Z,1014.85
2017-10-16T10:49:24.843Z,1014.79
2017-10-16T10:50:24.825Z,1014.58
2017-10-16T10:51:24.807Z,1014.54
2017-10-16T10:52:24.791Z,1014.58
2017-10-16T10:53:24.772Z,1014.62
2017-10-16T10:54:24.754Z,1014.52
2017-10-16T10:55:24.736Z,1014.56
2017-10-16T10:56:24.718Z,1014.48
2017-10-16T10:57:24.699Z,1014.45
2017-10-16T10:58:24.684Z,1014.40
2017-10-16T10:59:24.661Z,1014.38
2017-10-16T11:00:24.644Z,1014.29
2017-10-16T11:01:24.625Z,1014.33
2017-10-16T11:02:24.606Z,1014.28
2017-10-16T11:03:24.583Z,1014.27
2017-10-16T11:04:24.565Z,1014.26
2017-10-16T11:05:24.545Z,1014.20
2017-10-16T11:06:24.523Z,1014.09
2017-10-16T11:07:24.502Z,1014.13
2017-10-16T11:08:24.482Z,1014.15
2017-10-16T11:09:24.462Z,1014.12
2017-10-16T11:10:24.439Z,1014.13
2017-10-16T11:11:24.421Z,1014.09
2017-10-16T11:12:24.398Z,1014.12
2017-10-16T11:13:24.376Z,1014.07
2017-10-16T11:14:24.356Z,1014.09
2017-10-16T11:15:24.334Z,1014.14
2017-10-16T11:16:24.312Z,1014.04
2017-10-16T11:17:24.291Z,1014.07
2017-10-16T11:18:24.268Z,1014.07
2017-10-16T11:19:24.246Z,1014.04
2017-10-16T11:20:24.226Z,1014.03
2017-10-16T11:21:24.200Z,1014.04
2017-10-16T11:22:24.176Z,1014.15
2017-10-16T11:23:24.157Z,1014.10
2017-10-16T11:24:24.132Z,1014.19
2017-10-16T11:25:24.110Z,1014.08
2017-10-16T11:26:24.088Z,1014.23
2017-10-16T11:27:24.065Z,1014.07
2017-10-16T11:28:24.043Z,1014.07
2017-10-16T11:29:24.020Z,1014.08
2017-10-16T11:30:23.998Z,1014.04
2017-10-16T11:31:23.975Z,1014.06
2017-10-16T11:32:23.952Z,1014.07
2017-10-16T11:33:23.931Z,1014.06
2017-10-16T11:34:24.347Z,1014.03
2017-10-16T11:35:23.885Z,1013.99
2017-10-16T11:36:23.864Z,1013.99
2017-10-16T11:37:23.846Z,1013.93
2017-10-16T11:38:23.819Z,1013.94
2017-10-16T11:39:23.800Z,1013.91
2017-10-16T11:40:23.773Z,1013.90
2017-10-16T11:41:23.750Z,1013.89
2017-10-16T11:42:23.728Z,1013.93
2017-10-16T11:43:23.705Z,1013.82
2017-10-16T11:44:23.692Z,1013.91
2017-10-16T11:45:23.662Z,1013.93
2017-10-16T11:46:23.638Z,1013.82
2017-10-16T11:47:23.614Z,1013.82
2017-10-16T11:48:23.591Z,1013.78
2017-10-16T11:49:23.568Z,1013.77
2017-10-16T11:50:23.546Z,1013.83
2017-10-16T11:51:23.522Z,1013.80
2017-10-16T11:52:23.500Z,1013.82
2017-10-16T11:53:23.524Z,1013.81
2017-10-16T11:54:23.459Z,1013.79
2017-10-16T11:55:23.431Z,1013.79
2017-10-16T11:56:23.408Z,1013.83
2017-10-16T11:57:23.385Z,1013.83
2017-10-16T11:58:23.363Z,1013.78
2017-10-16T11:59:23.340Z,1013.87
2017-10-16T12:00:23.318Z,1013.96
2017-10-16T12:01:23.297Z,1013.96
2017-10-16T12:02:23.270Z,1013.97
2017-10-16T12:03:23.253Z,1013.97
2017-10-16T12:04:23.231Z,1013.95
2017-10-16T12:05:23.210Z,1013.92